sensor_id;sensor_type;location;lat;lon;timestamp;P1;durP1;ratioP1;P2;durP2;ratioP2
78308;SDS011;67566;42.022;21.356;2023-04-01T00:00:32;23.02;;;12.00;;
78308;SDS011;67566;42.022;21.356;2023-04-01T00:02:57;19.38;;;8.52;;
78308;SDS011;67566;42.022;21.356;2023-04-01T00:05:23;13.98;;;9.27;;
78308;SDS011;67566;42.022;21.356;2023-04-01T00:07:51;10.73;;;6.78;;
78308;SDS011;67566;42.022;21.356;2023-04-01T00:10:17;13.40;;;7.40;;
78308;SDS011;67566;42.022;21.356;2023-04-01T00:12:42;17.02;;;8.85;;
78308;SDS011;67566;42.022;21.356;2023-04-01T00:15:09;16.15;;;7.85;;
78308;SDS011;67566;42.022;21.356;2023-04-01T00:17:36;11.50;;;7.28;;
78308;SDS011;67566;42.022;21.356;2023-04-01T00:20:02;13.52;;;6.72;;
78308;SDS011;67566;42.022;21.356;2023-04-01T00:22:29;11.50;;;6.00;;
78308;SDS011;67566;42.022;21.356;2023-04-01T00:24:55;14.48;;;6.60;;
78308;SDS011;67566;42.022;21.356;2023-04-01T00:27:20;12.63;;;6.63;;
78308;SDS011;67566;42.022;21.356;2023-04-01T00:29:46;12.13;;;5.93;;
78308;SDS011;67566;42.022;21.356;2023-04-01T00:32:12;10.35;;;5.78;;
78308;SDS011;67566;42.022;21.356;2023-04-01T00:34:38;10.77;;;5.28;;
78308;SDS011;67566;42.022;21.356;2023-04-01T00:37:05;10.73;;;5.30;;
78308;SDS011;67566;42.022;21.356;2023-04-01T00:39:31;11.65;;;5.68;;
78308;SDS011;67566;42.022;21.356;2023-04-01T00:41:58;13.15;;;5.60;;
78308;SDS011;67566;42.022;21.356;2023-04-01T00:44:28;9.90;;;5.57;;
78308;SDS011;67566;42.022;21.356;2023-04-01T00:46:56;10.77;;;5.03;;
78308;SDS011;67566;42.022;21.356;2023-04-01T00:49:22;13.77;;;5.22;;
78308;SDS011;67566;42.022;21.356;2023-04-01T00:51:53;18.48;;;7.70;;
78308;SDS011;67566;42.022;21.356;2023-04-01T00:54:21;12.80;;;6.38;;
78308;SDS011;67566;42.022;21.356;2023-04-01T00:56:50;11.40;;;6.45;;
78308;SDS011;67566;42.022;21.356;2023-04-01T00:59:42;9.85;;;6.15;;
78308;SDS011;67566;42.022;21.356;2023-04-01T01:02:10;8.52;;;3.60;;
78308;SDS011;67566;42.022;21.356;2023-04-01T01:04:38;10.85;;;3.53;;
78308;SDS011;67566;42.022;21.356;2023-04-01T01:12:14;7.85;;;4.00;;
78308;SDS011;67566;42.022;21.356;2023-04-01T01:15:06;8.07;;;2.95;;
78308;SDS011;67566;42.022;21.356;2023-04-01T01:17:44;8.82;;;4.28;;
78308;SDS011;67566;42.022;21.356;2023-04-01T01:26:37;10.77;;;4.63;;
78308;SDS011;67566;42.022;21.356;2023-04-01T01:29:40;10.65;;;5.38;;
78308;SDS011;67566;42.022;21.356;2023-04-01T01:37:59;8.85;;;4.65;;
78308;SDS011;67566;42.022;21.356;2023-04-01T01:40:28;10.50;;;4.65;;
78308;SDS011;67566;42.022;21.356;2023-04-01T01:42:58;11.80;;;8.07;;
78308;SDS011;67566;42.022;21.356;2023-04-01T01:45:28;16.05;;;7.53;;
78308;SDS011;67566;42.022;21.356;2023-04-01T01:47:58;13.27;;;7.55;;
78308;SDS011;67566;42.022;21.356;2023-04-01T01:50:25;14.68;;;8.27;;
78308;SDS011;67566;42.022;21.356;2023-04-01T01:52:59;12.98;;;6.35;;
78308;SDS011;67566;42.022;21.356;2023-04-01T01:55:33;16.02;;;7.30;;
78308;SDS011;67566;42.022;21.356;2023-04-01T01:58:02;19.38;;;8.77;;
78308;SDS011;67566;42.022;21.356;2023-04-01T02:00:37;15.65;;;8.25;;
78308;SDS011;67566;42.022;21.356;2023-04-01T02:03:05;16.75;;;8.82;;
78308;SDS011;67566;42.022;21.356;2023-04-01T02:05:31;18.40;;;9.60;;
78308;SDS011;67566;42.022;21.356;2023-04-01T02:08:00;14.95;;;6.88;;
78308;SDS011;67566;42.022;21.356;2023-04-01T02:10:31;13.90;;;5.90;;
78308;SDS011;67566;42.022;21.356;2023-04-01T02:15:29;13.55;;;5.60;;
78308;SDS011;67566;42.022;21.356;2023-04-01T02:17:59;12.70;;;6.45;;
78308;SDS011;67566;42.022;21.356;2023-04-01T02:20:26;9.73;;;5.45;;
78308;SDS011;67566;42.022;21.356;2023-04-01T02:22:54;10.93;;;5.30;;
78308;SDS011;67566;42.022;21.356;2023-04-01T02:25:25;14.32;;;6.25;;
78308;SDS011;67566;42.022;21.356;2023-04-01T02:27:53;20.60;;;11.85;;
78308;SDS011;67566;42.022;21.356;2023-04-01T02:30:21;14.40;;;6.93;;
78308;SDS011;67566;42.022;21.356;2023-04-01T02:32:48;10.65;;;7.00;;
78308;SDS011;67566;42.022;21.356;2023-04-01T02:35:15;14.63;;;7.55;;
78308;SDS011;67566;42.022;21.356;2023-04-01T02:37:42;13.52;;;5.78;;
78308;SDS011;67566;42.022;21.356;2023-04-01T02:40:11;16.95;;;6.13;;
78308;SDS011;67566;42.022;21.356;2023-04-01T02:42:38;13.70;;;6.20;;
78308;SDS011;67566;42.022;21.356;2023-04-01T02:45:04;14.52;;;6.22;;
78308;SDS011;67566;42.022;21.356;2023-04-01T02:47:31;11.48;;;5.60;;
78308;SDS011;67566;42.022;21.356;2023-04-01T02:49:56;10.20;;;5.32;;
78308;SDS011;67566;42.022;21.356;2023-04-01T02:52:25;12.23;;;5.68;;
78308;SDS011;67566;42.022;21.356;2023-04-01T02:54:51;11.60;;;5.03;;
78308;SDS011;67566;42.022;21.356;2023-04-01T02:57:16;11.82;;;5.80;;
78308;SDS011;67566;42.022;21.356;2023-04-01T02:59:42;13.65;;;5.20;;
78308;SDS011;67566;42.022;21.356;2023-04-01T03:02:08;8.88;;;4.65;;
78308;SDS011;67566;42.022;21.356;2023-04-01T03:04:33;6.65;;;3.83;;
78308;SDS011;67566;42.022;21.356;2023-04-01T03:06:59;7.20;;;3.70;;
78308;SDS011;67566;42.022;21.356;2023-04-01T03:09:24;7.47;;;4.75;;
78308;SDS011;67566;42.022;21.356;2023-04-01T03:11:50;9.00;;;4.07;;
78308;SDS011;67566;42.022;21.356;2023-04-01T03:14:16;8.75;;;4.43;;
78308;SDS011;67566;42.022;21.356;2023-04-01T03:16:41;10.02;;;4.60;;
78308;SDS011;67566;42.022;21.356;2023-04-01T03:19:06;9.48;;;5.13;;
78308;SDS011;67566;42.022;21.356;2023-04-01T03:21:32;6.80;;;3.58;;
78308;SDS011;67566;42.022;21.356;2023-04-01T03:23:57;11.07;;;5.38;;
78308;SDS011;67566;42.022;21.356;2023-04-01T03:26:23;10.10;;;4.75;;
78308;SDS011;67566;42.022;21.356;2023-04-01T03:28:49;8.60;;;4.68;;
78308;SDS011;67566;42.022;21.356;2023-04-01T03:31:15;7.65;;;4.70;;
78308;SDS011;67566;42.022;21.356;2023-04-01T03:33:41;10.38;;;5.15;;
78308;SDS011;67566;42.022;21.356;2023-04-01T03:36:07;7.93;;;4.43;;
78308;SDS011;67566;42.022;21.356;2023-04-01T03:38:33;10.60;;;4.60;;
78308;SDS011;67566;42.022;21.356;2023-04-01T03:40:59;10.82;;;4.60;;
78308;SDS011;67566;42.022;21.356;2023-04-01T03:43:25;10.30;;;4.65;;
78308;SDS011;67566;42.022;21.356;2023-04-01T03:45:51;11.25;;;4.50;;
78308;SDS011;67566;42.022;21.356;2023-04-01T03:48:17;9.82;;;4.60;;
78308;SDS011;67566;42.022;21.356;2023-04-01T03:50:43;7.65;;;4.00;;
78308;SDS011;67566;42.022;21.356;2023-04-01T03:53:09;7.38;;;4.13;;
78308;SDS011;67566;42.022;21.356;2023-04-01T03:55:35;6.35;;;4.57;;
78308;SDS011;67566;42.022;21.356;2023-04-01T03:58:01;8.32;;;4.55;;
78308;SDS011;67566;42.022;21.356;2023-04-01T04:00:28;8.50;;;4.10;;
78308;SDS011;67566;42.022;21.356;2023-04-01T04:02:54;25.95;;;12.38;;
78308;SDS011;67566;42.022;21.356;2023-04-01T04:05:21;23.15;;;11.90;;
78308;SDS011;67566;42.022;21.356;2023-04-01T04:07:48;16.02;;;8.55;;
78308;SDS011;67566;42.022;21.356;2023-04-01T04:10:14;13.45;;;7.40;;
78308;SDS011;67566;42.022;21.356;2023-04-01T04:12:41;14.73;;;5.93;;
78308;SDS011;67566;42.022;21.356;2023-04-01T04:15:07;15.88;;;6.72;;
78308;SDS011;67566;42.022;21.356;2023-04-01T04:17:33;17.63;;;9.57;;
78308;SDS011;67566;42.022;21.356;2023-04-01T04:19:58;50.78;;;23.88;;
78308;SDS011;67566;42.022;21.356;2023-04-01T04:22:24;42.30;;;19.73;;
78308;SDS011;67566;42.022;21.356;2023-04-01T04:24:49;24.92;;;13.18;;
78308;SDS011;67566;42.022;21.356;2023-04-01T04:27:15;39.70;;;20.13;;
78308;SDS011;67566;42.022;21.356;2023-04-01T04:29:40;100.63;;;48.53;;
78308;SDS011;67566;42.022;21.356;2023-04-01T04:32:06;65.18;;;29.95;;
78308;SDS011;67566;42.022;21.356;2023-04-01T04:34:32;49.17;;;26.27;;
78308;SDS011;67566;42.022;21.356;2023-04-01T04:36:57;45.50;;;25.83;;
78308;SDS011;67566;42.022;21.356;2023-04-01T04:39:23;48.38;;;25.10;;
78308;SDS011;67566;42.022;21.356;2023-04-01T04:41:48;46.67;;;25.27;;
78308;SDS011;67566;42.022;21.356;2023-04-01T04:44:14;40.53;;;21.95;;
78308;SDS011;67566;42.022;21.356;2023-04-01T04:46:39;27.27;;;15.38;;
78308;SDS011;67566;42.022;21.356;2023-04-01T04:49:05;18.70;;;10.00;;
78308;SDS011;67566;42.022;21.356;2023-04-01T04:51:31;18.83;;;9.30;;
78308;SDS011;67566;42.022;21.356;2023-04-01T04:54:01;13.07;;;7.30;;
78308;SDS011;67566;42.022;21.356;2023-04-01T04:56:27;14.95;;;7.10;;
78308;SDS011;67566;42.022;21.356;2023-04-01T04:58:52;25.63;;;9.02;;
78308;SDS011;67566;42.022;21.356;2023-04-01T05:01:18;21.30;;;8.80;;
78308;SDS011;67566;42.022;21.356;2023-04-01T05:03:45;16.73;;;7.63;;
78308;SDS011;67566;42.022;21.356;2023-04-01T05:06:11;19.58;;;10.55;;
78308;SDS011;67566;42.022;21.356;2023-04-01T05:08:39;15.93;;;8.77;;
78308;SDS011;67566;42.022;21.356;2023-04-01T05:11:06;21.65;;;11.10;;
78308;SDS011;67566;42.022;21.356;2023-04-01T05:13:35;17.67;;;8.00;;
78308;SDS011;67566;42.022;21.356;2023-04-01T05:16:01;21.75;;;8.32;;
78308;SDS011;67566;42.022;21.356;2023-04-01T05:18:27;30.30;;;12.45;;
78308;SDS011;67566;42.022;21.356;2023-04-01T05:20:54;24.55;;;11.13;;
78308;SDS011;67566;42.022;21.356;2023-04-01T05:23:20;16.05;;;10.00;;
78308;SDS011;67566;42.022;21.356;2023-04-01T05:25:49;14.38;;;7.65;;
78308;SDS011;67566;42.022;21.356;2023-04-01T05:28:17;25.25;;;12.30;;
78308;SDS011;67566;42.022;21.356;2023-04-01T05:30:44;33.70;;;16.70;;
78308;SDS011;67566;42.022;21.356;2023-04-01T05:33:10;25.20;;;14.32;;
78308;SDS011;67566;42.022;21.356;2023-04-01T05:35:37;56.60;;;29.58;;
78308;SDS011;67566;42.022;21.356;2023-04-01T05:38:03;44.80;;;23.60;;
78308;SDS011;67566;42.022;21.356;2023-04-01T05:40:29;26.20;;;13.80;;
78308;SDS011;67566;42.022;21.356;2023-04-01T05:42:55;20.95;;;10.93;;
78308;SDS011;67566;42.022;21.356;2023-04-01T05:45:21;17.17;;;9.70;;
78308;SDS011;67566;42.022;21.356;2023-04-01T05:47:46;18.23;;;10.63;;
78308;SDS011;67566;42.022;21.356;2023-04-01T05:50:12;18.60;;;11.27;;
78308;SDS011;67566;42.022;21.356;2023-04-01T05:52:38;17.35;;;9.15;;
78308;SDS011;67566;42.022;21.356;2023-04-01T05:55:03;32.00;;;19.85;;
78308;SDS011;67566;42.022;21.356;2023-04-01T05:57:29;43.40;;;25.33;;
78308;SDS011;67566;42.022;21.356;2023-04-01T05:59:55;26.05;;;17.08;;
78308;SDS011;67566;42.022;21.356;2023-04-01T06:02:20;25.98;;;14.23;;
78308;SDS011;67566;42.022;21.356;2023-04-01T06:04:46;20.40;;;12.82;;
78308;SDS011;67566;42.022;21.356;2023-04-01T06:07:12;29.92;;;16.88;;
78308;SDS011;67566;42.022;21.356;2023-04-01T06:09:39;33.13;;;19.02;;
78308;SDS011;67566;42.022;21.356;2023-04-01T06:26:08;19.98;;;11.35;;
78308;SDS011;67566;42.022;21.356;2023-04-01T06:29:01;26.20;;;14.57;;
78308;SDS011;67566;42.022;21.356;2023-04-01T06:56:28;9.13;;;5.43;;
78308;SDS011;67566;42.022;21.356;2023-04-01T07:01:30;10.25;;;6.18;;
78308;SDS011;67566;42.022;21.356;2023-04-01T07:03:58;8.07;;;5.03;;
78308;SDS011;67566;42.022;21.356;2023-04-01T07:06:35;13.18;;;6.00;;
78308;SDS011;67566;42.022;21.356;2023-04-01T07:09:10;9.23;;;5.20;;
78308;SDS011;67566;42.022;21.356;2023-04-01T07:11:39;12.82;;;5.00;;
78308;SDS011;67566;42.022;21.356;2023-04-01T07:16:43;14.23;;;5.22;;
78308;SDS011;67566;42.022;21.356;2023-04-01T07:22:02;13.70;;;4.20;;
78308;SDS011;67566;42.022;21.356;2023-04-01T07:24:34;12.57;;;4.60;;
78308;SDS011;67566;42.022;21.356;2023-04-01T07:27:04;7.78;;;3.90;;
78308;SDS011;67566;42.022;21.356;2023-04-01T07:29:34;8.65;;;3.85;;
78308;SDS011;67566;42.022;21.356;2023-04-01T07:32:12;8.45;;;4.05;;
78308;SDS011;67566;42.022;21.356;2023-04-01T07:35:00;11.93;;;4.40;;
78308;SDS011;67566;42.022;21.356;2023-04-01T07:37:38;7.88;;;4.05;;
78308;SDS011;67566;42.022;21.356;2023-04-01T07:40:15;8.38;;;3.65;;
78308;SDS011;67566;42.022;21.356;2023-04-01T07:50:37;6.68;;;3.58;;
78308;SDS011;67566;42.022;21.356;2023-04-01T08:07:06;14.73;;;6.93;;
78308;SDS011;67566;42.022;21.356;2023-04-01T08:15:08;9.68;;;4.38;;
78308;SDS011;67566;42.022;21.356;2023-04-01T08:20:27;10.93;;;4.28;;
78308;SDS011;67566;42.022;21.356;2023-04-01T08:28:45;5.53;;;3.22;;
78308;SDS011;67566;42.022;21.356;2023-04-01T08:33:45;9.30;;;4.05;;
78308;SDS011;67566;42.022;21.356;2023-04-01T08:36:14;9.38;;;4.10;;
78308;SDS011;67566;42.022;21.356;2023-04-01T08:39:02;11.13;;;5.20;;
78308;SDS011;67566;42.022;21.356;2023-04-01T08:44:41;14.55;;;9.48;;
78308;SDS011;67566;42.022;21.356;2023-04-01T08:58:22;7.90;;;3.80;;
78308;SDS011;67566;42.022;21.356;2023-04-01T09:01:17;9.07;;;4.28;;
78308;SDS011;67566;42.022;21.356;2023-04-01T09:06:40;9.20;;;4.03;;
78308;SDS011;67566;42.022;21.356;2023-04-01T09:17:17;7.50;;;3.75;;
78308;SDS011;67566;42.022;21.356;2023-04-01T09:23:08;12.20;;;4.05;;
78308;SDS011;67566;42.022;21.356;2023-04-01T09:25:53;10.25;;;4.22;;
78308;SDS011;67566;42.022;21.356;2023-04-01T09:34:24;9.63;;;6.30;;
78308;SDS011;67566;42.022;21.356;2023-04-01T09:59:49;4.75;;;2.65;;
78308;SDS011;67566;42.022;21.356;2023-04-01T10:15:51;7.20;;;4.18;;
78308;SDS011;67566;42.022;21.356;2023-04-01T10:18:46;6.35;;;3.65;;
78308;SDS011;67566;42.022;21.356;2023-04-01T10:24:00;29.33;;;16.60;;
78308;SDS011;67566;42.022;21.356;2023-04-01T10:44:15;29.80;;;18.05;;
78308;SDS011;67566;42.022;21.356;2023-04-01T11:12:15;2.97;;;2.10;;
78308;SDS011;67566;42.022;21.356;2023-04-01T11:31:21;4.72;;;3.22;;
78308;SDS011;67566;42.022;21.356;2023-04-01T11:34:18;3.92;;;1.63;;
78308;SDS011;67566;42.022;21.356;2023-04-01T11:36:57;4.13;;;1.75;;
78308;SDS011;67566;42.022;21.356;2023-04-01T11:42:49;6.25;;;3.30;;
78308;SDS011;67566;42.022;21.356;2023-04-01T12:10:26;9.48;;;5.75;;
78308;SDS011;67566;42.022;21.356;2023-04-01T12:15:53;17.05;;;11.63;;
78308;SDS011;67566;42.022;21.356;2023-04-01T12:18:46;4.72;;;3.05;;
78308;SDS011;67566;42.022;21.356;2023-04-01T12:21:26;3.97;;;1.90;;
78308;SDS011;67566;42.022;21.356;2023-04-01T12:43:49;3.03;;;2.22;;
78308;SDS011;67566;42.022;21.356;2023-04-01T12:46:26;5.05;;;2.30;;
78308;SDS011;67566;42.022;21.356;2023-04-01T12:49:10;6.15;;;3.63;;
78308;SDS011;67566;42.022;21.356;2023-04-01T13:06:08;2.83;;;2.00;;
78308;SDS011;67566;42.022;21.356;2023-04-01T13:24:51;21.33;;;13.30;;
78308;SDS011;67566;42.022;21.356;2023-04-01T13:32:42;9.95;;;5.53;;
78308;SDS011;67566;42.022;21.356;2023-04-01T13:35:59;18.00;;;5.40;;
78308;SDS011;67566;42.022;21.356;2023-04-01T13:43:43;5.43;;;2.40;;
78308;SDS011;67566;42.022;21.356;2023-04-01T14:11:13;5.20;;;2.40;;
78308;SDS011;67566;42.022;21.356;2023-04-01T14:17:00;5.47;;;2.30;;
78308;SDS011;67566;42.022;21.356;2023-04-01T14:41:45;4.60;;;2.58;;
78308;SDS011;67566;42.022;21.356;2023-04-01T14:52:22;6.97;;;3.38;;
78308;SDS011;67566;42.022;21.356;2023-04-01T14:54:53;5.93;;;2.80;;
78308;SDS011;67566;42.022;21.356;2023-04-01T14:57:31;10.93;;;5.97;;
78308;SDS011;67566;42.022;21.356;2023-04-01T15:00:07;11.88;;;8.00;;
78308;SDS011;67566;42.022;21.356;2023-04-01T15:05:32;4.18;;;2.17;;
78308;SDS011;67566;42.022;21.356;2023-04-01T15:10:58;7.03;;;2.80;;
78308;SDS011;67566;42.022;21.356;2023-04-01T15:18:37;7.88;;;3.80;;
78308;SDS011;67566;42.022;21.356;2023-04-01T15:24:07;14.07;;;7.50;;
78308;SDS011;67566;42.022;21.356;2023-04-01T15:35:25;11.30;;;6.45;;
78308;SDS011;67566;42.022;21.356;2023-04-01T16:11:18;4.95;;;2.05;;
78308;SDS011;67566;42.022;21.356;2023-04-01T16:20:02;9.10;;;4.90;;
78308;SDS011;67566;42.022;21.356;2023-04-01T16:22:57;4.78;;;2.00;;
78308;SDS011;67566;42.022;21.356;2023-04-01T16:25:33;4.53;;;1.75;;
78308;SDS011;67566;42.022;21.356;2023-04-01T16:28:13;5.20;;;3.35;;
78308;SDS011;67566;42.022;21.356;2023-04-01T16:38:46;5.25;;;2.53;;
78308;SDS011;67566;42.022;21.356;2023-04-01T16:41:20;8.95;;;5.13;;
78308;SDS011;67566;42.022;21.356;2023-04-01T16:43:58;6.78;;;4.70;;
78308;SDS011;67566;42.022;21.356;2023-04-01T16:46:41;6.13;;;3.55;;
78308;SDS011;67566;42.022;21.356;2023-04-01T16:51:40;6.18;;;2.97;;
78308;SDS011;67566;42.022;21.356;2023-04-01T17:04:37;4.55;;;2.22;;
78308;SDS011;67566;42.022;21.356;2023-04-01T17:07:28;3.65;;;1.75;;
78308;SDS011;67566;42.022;21.356;2023-04-01T17:12:50;5.22;;;3.50;;
78308;SDS011;67566;42.022;21.356;2023-04-01T17:21:06;8.40;;;5.18;;
78308;SDS011;67566;42.022;21.356;2023-04-01T17:26:23;15.18;;;11.30;;
78308;SDS011;67566;42.022;21.356;2023-04-01T17:34:23;4.93;;;2.92;;
78308;SDS011;67566;42.022;21.356;2023-04-01T17:42:26;5.10;;;2.88;;
78308;SDS011;67566;42.022;21.356;2023-04-01T17:45:21;4.47;;;2.58;;
78308;SDS011;67566;42.022;21.356;2023-04-01T17:47:58;6.03;;;2.90;;
78308;SDS011;67566;42.022;21.356;2023-04-01T18:01:57;4.35;;;2.30;;
78308;SDS011;67566;42.022;21.356;2023-04-01T18:10:57;4.40;;;2.67;;
78308;SDS011;67566;42.022;21.356;2023-04-01T18:24:28;5.13;;;3.00;;
78308;SDS011;67566;42.022;21.356;2023-04-01T18:29:41;5.63;;;3.05;;
78308;SDS011;67566;42.022;21.356;2023-04-01T18:43:00;3.35;;;2.33;;
78308;SDS011;67566;42.022;21.356;2023-04-01T18:45:36;4.93;;;2.25;;
78308;SDS011;67566;42.022;21.356;2023-04-01T18:53:31;8.93;;;5.70;;
78308;SDS011;67566;42.022;21.356;2023-04-01T18:56:04;7.25;;;4.18;;
78308;SDS011;67566;42.022;21.356;2023-04-01T18:58:53;5.32;;;2.83;;
78308;SDS011;67566;42.022;21.356;2023-04-01T19:01:34;8.93;;;5.95;;
78308;SDS011;67566;42.022;21.356;2023-04-01T19:04:08;6.63;;;5.00;;
78308;SDS011;67566;42.022;21.356;2023-04-01T19:06:57;9.50;;;6.95;;
78308;SDS011;67566;42.022;21.356;2023-04-01T19:09:27;9.02;;;5.57;;
78308;SDS011;67566;42.022;21.356;2023-04-01T19:20:24;44.00;;;24.08;;
78308;SDS011;67566;42.022;21.356;2023-04-01T19:34:22;13.27;;;6.95;;
78308;SDS011;67566;42.022;21.356;2023-04-01T19:37:02;11.45;;;7.82;;
78308;SDS011;67566;42.022;21.356;2023-04-01T19:43:19;6.10;;;4.63;;
78308;SDS011;67566;42.022;21.356;2023-04-01T19:45:46;8.65;;;5.32;;
78308;SDS011;67566;42.022;21.356;2023-04-01T19:53:58;7.80;;;4.35;;
78308;SDS011;67566;42.022;21.356;2023-04-01T19:56:31;4.78;;;3.28;;
78308;SDS011;67566;42.022;21.356;2023-04-01T19:59:09;16.63;;;11.15;;
78308;SDS011;67566;42.022;21.356;2023-04-01T20:01:38;6.95;;;4.45;;
78308;SDS011;67566;42.022;21.356;2023-04-01T20:04:17;11.20;;;7.15;;
78308;SDS011;67566;42.022;21.356;2023-04-01T20:07:09;12.95;;;6.68;;
78308;SDS011;67566;42.022;21.356;2023-04-01T20:09:47;12.00;;;5.57;;
78308;SDS011;67566;42.022;21.356;2023-04-01T20:14:58;5.78;;;2.78;;
78308;SDS011;67566;42.022;21.356;2023-04-01T20:17:33;7.18;;;3.13;;
78308;SDS011;67566;42.022;21.356;2023-04-01T20:50:24;16.88;;;9.85;;
78308;SDS011;67566;42.022;21.356;2023-04-01T21:03:59;11.25;;;7.07;;
78308;SDS011;67566;42.022;21.356;2023-04-01T21:12:06;6.45;;;4.20;;
78308;SDS011;67566;42.022;21.356;2023-04-01T21:14:50;11.65;;;8.07;;
78308;SDS011;67566;42.022;21.356;2023-04-01T21:17:42;15.48;;;7.53;;
78308;SDS011;67566;42.022;21.356;2023-04-01T21:48:22;20.45;;;15.13;;
78308;SDS011;67566;42.022;21.356;2023-04-01T21:51:22;15.05;;;10.15;;
78308;SDS011;67566;42.022;21.356;2023-04-01T22:01:45;10.65;;;7.22;;
78308;SDS011;67566;42.022;21.356;2023-04-01T22:04:56;10.00;;;7.32;;
78308;SDS011;67566;42.022;21.356;2023-04-01T22:10:05;9.43;;;6.68;;
78308;SDS011;67566;42.022;21.356;2023-04-01T22:12:38;10.88;;;6.07;;
78308;SDS011;67566;42.022;21.356;2023-04-01T22:20:40;10.10;;;5.90;;
78308;SDS011;67566;42.022;21.356;2023-04-01T22:26:04;8.20;;;6.43;;
78308;SDS011;67566;42.022;21.356;2023-04-01T22:28:41;11.65;;;6.57;;
78308;SDS011;67566;42.022;21.356;2023-04-01T22:31:18;9.45;;;6.95;;
78308;SDS011;67566;42.022;21.356;2023-04-01T22:34:06;11.30;;;6.15;;
78308;SDS011;67566;42.022;21.356;2023-04-01T22:36:51;11.35;;;6.25;;
78308;SDS011;67566;42.022;21.356;2023-04-01T22:48:38;7.30;;;4.82;;
78308;SDS011;67566;42.022;21.356;2023-04-01T22:53:41;9.55;;;6.07;;
78308;SDS011;67566;42.022;21.356;2023-04-01T22:56:26;7.35;;;5.82;;
78308;SDS011;67566;42.022;21.356;2023-04-01T22:59:19;11.18;;;6.75;;
78308;SDS011;67566;42.022;21.356;2023-04-01T23:02:04;8.18;;;6.03;;
78308;SDS011;67566;42.022;21.356;2023-04-01T23:04:37;11.05;;;7.18;;
78308;SDS011;67566;42.022;21.356;2023-04-01T23:09:58;8.10;;;6.13;;
78308;SDS011;67566;42.022;21.356;2023-04-01T23:12:27;10.82;;;6.35;;
78308;SDS011;67566;42.022;21.356;2023-04-01T23:14:55;9.73;;;5.70;;
78308;SDS011;67566;42.022;21.356;2023-04-01T23:20:29;8.07;;;5.13;;
78308;SDS011;67566;42.022;21.356;2023-04-01T23:25:44;9.68;;;5.53;;
78308;SDS011;67566;42.022;21.356;2023-04-01T23:33:10;7.35;;;5.00;;
78308;SDS011;67566;42.022;21.356;2023-04-01T23:38:22;8.07;;;5.32;;
78308;SDS011;67566;42.022;21.356;2023-04-01T23:40:51;12.65;;;5.18;;
78308;SDS011;67566;42.022;21.356;2023-04-01T23:43:21;6.93;;;4.30;;
78308;SDS011;67566;42.022;21.356;2023-04-01T23:45:50;7.25;;;4.38;;
78308;SDS011;67566;42.022;21.356;2023-04-01T23:48:17;5.65;;;4.40;;
78308;SDS011;67566;42.022;21.356;2023-04-01T23:50:48;6.53;;;4.07;;
78308;SDS011;67566;42.022;21.356;2023-04-01T23:53:16;8.80;;;5.63;;
78308;SDS011;67566;42.022;21.356;2023-04-01T23:55:48;7.60;;;5.43;;
78308;SDS011;67566;42.022;21.356;2023-04-01T23:58:16;7.97;;;4.47;;
